x

Settlement Point, Gbi (spgf1) Weather Station

4:00pm - Sat 13th Feb 2016 All times are EST. -5 hours from GMT.

  • Wind
    18mph, 21mph gusts
  • Air Temp 71°f
  • Sea Pressure 1021.5mb
  • Settlement Point, Gbi
  • Settlement Point, Gbi

More Historic Weather Station data

Upgrade to MSW Pro to gain access to the past 30 days of data for over 8000 Wavebouys and Weather Stations around the globe.

Join Pro

Comparision Forecast

View Surf forecast
   
Sat 02/13 4:00pm 18 21 mph 1021.5mb 71f
3:00pm 15 17 mph 1021.3mb 70f
2:00pm 17 21 mph 1021.6mb 70f
1:00pm 15 17 mph 1022.5mb 71f
12:00pm 16 18 mph 1023.4mb 71f
11:00am 16 20 mph 1024mb 70f
10:00am 18 22 mph 1024mb 70f
9:00am 20 22 mph 1023.8mb 69f
8:00am 18 21 mph 1023.3mb 70f
7:00am 17 25 mph 1023mb 69f
6:00am 17 18 mph 1022.3mb 70f
5:00am 15 21 mph 1021.7mb 70f
4:00am 20 22 mph 1021.5mb 70f
3:00am 17 21 mph 1021.6mb 70f
2:00am 15 18 mph 1021.9mb 71f
1:00am 15 18 mph 1022.5mb 71f
12:00am 13 15 mph 1022.8mb 71f
Fri 02/12 11:00pm 14 16 mph 1023.1mb 70f
10:00pm 10 13 mph 1023.5mb 70f
9:00pm 10 13 mph 1023.7mb 69f
8:00pm 10 11 mph 1023.8mb 69f
7:00pm 10 11 mph 1023.7mb 69f
6:00pm 8 10 mph 1023.6mb 68f
5:00pm 1 2 mph 1023.4mb 71f
4:00pm 3 5 mph 1023.4mb 69f
3:00pm 5 6 mph 1024.1mb 68f
2:00pm 5
mph
1024.5mb 67f
1:00pm 6 7 mph 1025.3mb 67f
12:00pm 8 9 mph 1026.4mb 67f
11:00am 8 10 mph 1027.4mb 66f
10:00am 9 10 mph 1027.5mb 65f
9:00am 10 11 mph 1027.2mb 65f
8:00am 9 10 mph 1027mb 65f
7:00am 9 10 mph 1026.5mb 63f
6:00am 7 8 mph 1026mb 63f
5:00am 7 8 mph 1025.4mb 63f
4:00am 6 7 mph 1025mb 63f
3:00am 6 8 mph 1025.2mb 63f
2:00am 5
mph
1025.5mb 63f
1:00am 3 5 mph 1026mb 63f
12:00am 3 6 mph 1026.2mb 63f
Thu 02/11 11:00pm 6 7 mph 1026.4mb 61f
10:00pm 7
mph
1026.4mb 60f
9:00pm 5 6 mph 1026.4mb 61f
8:00pm 6 7 mph 1026.1mb 63f
7:00pm 6 8 mph 1025.9mb 63f
6:00pm 6 8 mph 1025.9mb 64f
5:00pm 10 11 mph 1025.3mb 64f
4:00pm 9 11 mph 1025.1mb 64f
3:00pm 11 14 mph 1025.1mb 64f
2:00pm 11 15 mph 1025.1mb 64f
1:00pm 11 14 mph 1025.8mb 64f
12:00pm 14 17 mph 1026.6mb 63f
11:00am 15 17 mph 1027.3mb 62f
10:00am 18 21 mph 1027.1mb 63f
9:00am 18 21 mph 1026.4mb 63f
8:00am 16 20 mph 1025.9mb 62f
7:00am 13 14 mph 1025.1mb 61f
6:00am 14 15 mph 1024.6mb 60f
5:00am 16 20 mph 1023.9mb 60f
4:00am 16 18 mph 1023.6mb 59f
3:00am 20 22 mph 1023.6mb 59f
2:00am 18 21 mph 1023.8mb 59f
1:00am 17 21 mph 1023.8mb 61f
12:00am 23 28 mph 1024.2mb 62f
Wed 02/10 11:00pm 23 26 mph 1024.3mb 62f
10:00pm 23 25 mph 1024mb 62f
9:00pm 21 24 mph 1023.8mb 62f
8:00pm 21 26 mph 1023.7mb 62f
7:00pm 24 28 mph 1023mb 62f
6:00pm 26 30 mph 1022.7mb 62f
5:00pm 22 25 mph 1022.4mb 61f
4:00pm 15 18 mph 1022.2mb 60f
3:00pm 16 18 mph 1022.2mb 60f
2:00pm 16 20 mph 1022.4mb 60f
1:00pm 21 25 mph 1023mb 60f
12:00pm 17 20 mph 1023.6mb 60f
11:00am 18 23 mph 1023.9mb 60f
10:00am 21 22 mph 1023.8mb 61f
9:00am 23 28 mph 1023.2mb 61f
8:00am 23 26 mph 1022.2mb 61f
7:00am 24 29 mph 1021.5mb 61f
6:00am 28 31 mph 1020.4mb 61f
5:00am 25 30 mph 1019.6mb 62f
4:00am 26 32 mph 1019.3mb 62f
3:00am 24 29 mph 1018.9mb 62f
2:00am 29 30 mph 1018.9mb 63f
1:00am 29 33 mph 1019mb 64f
12:00am 26 29 mph 1019.1mb 64f
Tue 02/09 11:00pm 30 33 mph 1019.4mb 64f